Time;durP1;ratioP1;P1;durP2;ratioP2;P2;SDS_P1;SDS_P2;PMS_P1;PMS_P2;Temp;Humidity;BMP_temperature;BMP_pressure;BME280_temperature;BME280_humidity;BME280_pressure;Samples;Min_cycle;Max_cycle;Signal;HPM_P1;HPM_P2
2022/07/15 00:00:06;;;;;;;1.65;1.08;;;22.00;64.20;;;;;;5084387;27;43620;-60
2022/07/15 00:02:33;;;;;;;1.85;1.10;;;22.00;63.50;;;;;;5084274;27;44986;-61
2022/07/15 00:05:01;;;;;;;1.45;0.80;;;22.00;63.50;;;;;;5084366;27;43742;-61
2022/07/15 00:07:28;;;;;;;1.40;0.82;;;22.00;63.50;;;;;;5084433;27;43414;-61
2022/07/15 00:10:14;;;;;;;2.42;1.02;;;22.00;63.50;;;;;;5083780;28;43699;-61
2022/07/15 00:12:41;;;;;;;1.35;0.82;;;21.90;63.50;;;;;;5083186;28;44985;-61
2022/07/15 00:15:09;;;;;;;1.77;1.15;;;22.00;63.50;;;;;;5084649;27;43816;-61
2022/07/15 00:17:36;;;;;;;1.30;0.70;;;21.90;63.50;;;;;;5084334;27;43415;-61
2022/07/15 00:20:04;;;;;;;1.45;0.90;;;21.90;63.50;;;;;;5082663;28;44061;-61
2022/07/15 00:22:32;;;;;;;2.20;0.90;;;21.90;63.50;;;;;;5084164;27;45144;-61
2022/07/15 00:24:59;;;;;;;1.23;0.90;;;21.90;63.50;;;;;;5084084;27;44117;-61
2022/07/15 00:27:26;;;;;;;1.23;0.73;;;21.90;63.50;;;;;;5084104;27;43409;-61
2022/07/15 00:29:54;;;;;;;1.10;0.88;;;21.90;63.50;;;;;;5083210;28;43601;-61
2022/07/15 00:32:21;;;;;;;1.23;0.70;;;21.90;63.50;;;;;;5084151;28;44954;-61
2022/07/15 00:34:51;;;;;;;1.17;0.75;;;21.90;63.40;;;;;;5082267;28;43652;-61
2022/07/15 00:37:18;;;;;;;1.63;0.80;;;21.90;63.50;;;;;;5079198;28;43383;-61
2022/07/15 00:39:46;;;;;;;1.60;0.90;;;21.90;63.50;;;;;;5080662;28;43534;-61
2022/07/15 00:45:00;;;;;;;0.85;0.70;;;21.90;63.50;;;;;;5080522;28;44007;-61
2022/07/15 00:47:28;;;;;;;0.95;0.70;;;21.80;63.40;;;;;;5081244;28;43426;-61
2022/07/15 00:49:55;;;;;;;1.35;0.70;;;21.80;63.50;;;;;;5083568;27;43497;-61
2022/07/15 00:52:25;;;;;;;1.30;0.77;;;21.90;63.60;;;;;;5083961;27;45043;-61
2022/07/15 00:54:54;;;;;;;0.93;0.75;;;21.80;63.50;;;;;;5082959;27;43417;-61
2022/07/15 00:57:23;;;;;;;1.10;0.80;;;21.80;63.50;;;;;;5084068;27;43446;-61
2022/07/15 00:59:53;;;;;;;1.15;0.60;;;21.80;63.50;;;;;;5072486;28;43620;-60
2022/07/15 01:02:20;;;;;;;1.13;0.82;;;21.80;63.50;;;;;;5082630;27;45113;-61
2022/07/15 01:04:50;;;;;;;1.10;0.63;;;21.80;63.50;;;;;;5083046;27;43973;-61
2022/07/15 01:07:18;;;;;;;1.55;0.88;;;21.80;63.50;;;;;;5083960;28;43454;-61
2022/07/15 01:09:47;;;;;;;1.17;0.82;;;21.80;63.50;;;;;;5081032;28;43609;-61
2022/07/15 01:12:14;;;;;;;1.23;0.73;;;21.80;63.50;;;;;;5083437;27;44059;-61
2022/07/15 01:14:42;;;;;;;0.80;0.60;;;21.80;63.50;;;;;;5077344;28;43754;-61
2022/07/15 01:17:11;;;;;;;1.25;0.70;;;21.80;63.50;;;;;;5076592;28;43495;-61
2022/07/15 01:19:40;;;;;;;1.45;0.80;;;21.80;63.50;;;;;;5063936;28;43618;-61
2022/07/15 01:22:09;;;;;;;0.82;0.77;;;21.80;63.50;;;;;;5063990;28;43856;-61
2022/07/15 01:24:37;;;;;;;0.80;0.70;;;21.80;63.50;;;;;;5081963;28;43966;-61
2022/07/15 01:27:13;;;;;;;1.38;0.70;;;21.80;63.50;;;;;;5070277;28;43573;-61
2022/07/15 01:29:41;;;;;;;0.98;0.60;;;21.70;63.50;;;;;;5072324;28;43499;-61
2022/07/15 01:32:09;;;;;;;1.02;0.80;;;21.80;63.50;;;;;;5081586;28;44881;-61
2022/07/15 01:34:36;;;;;;;1.83;0.77;;;21.70;63.50;;;;;;5075113;28;44033;-61
2022/07/15 01:37:04;;;;;;;1.38;0.90;;;21.70;63.50;;;;;;5081464;28;43442;-61
2022/07/15 01:39:34;;;;;;;1.00;0.80;;;21.70;63.50;;;;;;5070441;28;43464;-61
2022/07/15 01:42:05;;;;;;;0.95;0.70;;;21.70;63.50;;;;;;5095768;27;44854;-61
2022/07/15 01:44:34;;;;;;;0.82;0.55;;;21.70;63.50;;;;;;5066818;28;43911;-61
2022/07/15 01:47:01;;;;;;;1.00;0.60;;;21.70;63.50;;;;;;5082727;27;43453;-61
2022/07/15 01:49:33;;;;;;;0.50;0.50;;;21.70;63.50;;;;;;5070038;28;43534;-61
2022/07/15 01:52:12;;;;;;;0.88;0.70;;;21.70;63.50;;;;;;5082217;28;45041;-61
2022/07/15 01:54:42;;;;;;;1.38;0.80;;;21.70;63.50;;;;;;5081481;28;43429;-61
2022/07/15 01:57:10;;;;;;;1.33;0.68;;;21.70;63.50;;;;;;5083150;27;43423;-61
2022/07/15 01:59:52;;;;;;;1.50;0.75;;;21.70;63.50;;;;;;5070901;28;43526;-61
2022/07/15 02:02:30;;;;;;;0.60;0.60;;;21.70;63.50;;;;;;5073942;28;44947;-61
2022/07/15 02:04:58;;;;;;;0.57;0.57;;;21.70;63.50;;;;;;5073353;28;44122;-61
2022/07/15 02:07:25;;;;;;;0.65;0.57;;;21.60;63.50;;;;;;5081580;28;43369;-61
2022/07/15 02:09:52;;;;;;;0.82;0.60;;;21.70;63.60;;;;;;5080776;28;43580;-61
2022/07/15 02:12:20;;;;;;;1.00;0.60;;;21.60;63.50;;;;;;5075836;28;44682;-61
2022/07/15 02:14:52;;;;;;;1.40;0.50;;;21.60;63.50;;;;;;5072873;28;44160;-61
2022/07/15 02:17:20;;;;;;;0.68;0.60;;;21.60;63.50;;;;;;5079157;28;43484;-61
2022/07/15 02:19:48;;;;;;;0.50;0.50;;;21.60;63.50;;;;;;5070523;28;43541;-61
2022/07/15 02:22:17;;;;;;;0.90;0.30;;;21.60;63.50;;;;;;5075564;28;44770;-61
2022/07/15 02:24:44;;;;;;;0.77;0.57;;;21.60;63.50;;;;;;5073851;28;43681;-61
2022/07/15 02:27:18;;;;;;;0.60;0.60;;;21.60;63.50;;;;;;5081150;28;43319;-61
2022/07/15 02:29:46;;;;;;;0.60;0.50;;;21.60;63.50;;;;;;5081508;27;43615;-61
2022/07/15 02:32:15;;;;;;;0.43;0.40;;;21.60;63.50;;;;;;5080912;28;44068;-61
2022/07/15 02:34:42;;;;;;;0.47;0.40;;;21.60;63.50;;;;;;5078874;28;43964;-61
2022/07/15 02:37:10;;;;;;;0.95;0.60;;;21.60;63.60;;;;;;5081289;28;43505;-61
2022/07/15 02:39:38;;;;;;;0.70;0.50;;;21.50;63.50;;;;;;5080671;28;43585;-61
2022/07/15 02:42:06;;;;;;;0.47;0.40;;;21.60;63.50;;;;;;5081500;27;43945;-61
2022/07/15 02:44:36;;;;;;;1.07;0.60;;;21.50;63.50;;;;;;5069427;28;43855;-61
2022/07/15 02:47:03;;;;;;;1.63;0.80;;;21.50;63.50;;;;;;5064425;28;43514;-61
2022/07/15 02:49:31;;;;;;;0.70;0.30;;;21.50;63.50;;;;;;5081559;27;43606;-61
2022/07/15 02:51:58;;;;;;;1.30;0.70;;;21.50;63.50;;;;;;5073246;27;44665;-61
2022/07/15 02:54:29;;;;;;;0.57;0.40;;;21.50;63.50;;;;;;5082700;28;43964;-61
2022/07/15 02:56:57;;;;;;;0.60;0.60;;;21.50;63.50;;;;;;5070659;28;43434;-61
2022/07/15 02:59:26;;;;;;;0.88;0.52;;;21.50;63.50;;;;;;5096424;27;43556;-61
2022/07/15 03:01:57;;;;;;;0.40;0.40;;;21.50;63.50;;;;;;5081640;28;44910;-61
2022/07/15 03:04:25;;;;;;;0.50;0.50;;;21.50;64.10;;;;;;5085710;27;43963;-60
2022/07/15 03:06:53;;;;;;;0.43;0.43;;;21.50;63.50;;;;;;5069948;28;43390;-61
2022/07/15 03:09:20;;;;;;;0.40;0.40;;;21.50;64.10;;;;;;5079511;28;43432;-61
2022/07/15 03:11:49;;;;;;;0.40;0.40;;;21.50;63.50;;;;;;5074335;28;45142;-61
2022/07/15 03:14:16;;;;;;;1.38;0.63;;;21.50;63.50;;;;;;5085267;28;43986;-61
2022/07/15 03:16:47;;;;;;;;;;;21.50;63.50;;;;;;5085108;27;43445;-61
2022/07/15 03:19:15;;;;;;;0.60;0.60;;;21.50;63.50;;;;;;5078963;28;44088;-61
2022/07/15 03:21:46;;;;;;;0.45;0.32;;;21.40;63.60;;;;;;5065291;28;45464;-61
2022/07/15 03:24:13;;;;;;;0.47;0.40;;;21.40;63.60;;;;;;5079919;28;43951;-61
2022/07/15 03:26:43;;;;;;;0.60;0.60;;;21.40;63.60;;;;;;5083871;28;43456;-61
2022/07/15 03:29:13;;;;;;;0.63;0.40;;;21.40;63.50;;;;;;5084811;27;43537;-61
2022/07/15 03:31:42;;;;;;;;;;;21.40;63.50;;;;;;5073099;28;44950;-61
2022/07/15 03:34:10;;;;;;;0.50;0.50;;;21.40;63.50;;;;;;5098473;27;43654;-61
2022/07/15 03:36:39;;;;;;;0.38;0.30;;;21.40;63.60;;;;;;5068578;28;44028;-61
2022/07/15 03:39:07;;;;;;;0.25;0.22;;;21.40;63.60;;;;;;5083563;28;43590;-61
2022/07/15 03:41:35;;;;;;;1.40;0.45;;;21.40;63.60;;;;;;5075527;28;44694;-60
2022/07/15 03:44:04;;;;;;;0.38;0.38;;;21.40;63.60;;;;;;5066177;28;43412;-61
2022/07/15 03:46:31;;;;;;;0.68;0.45;;;21.40;63.50;;;;;;5084603;27;43425;-61
2022/07/15 03:49:02;;;;;;;0.93;0.40;;;21.40;63.50;;;;;;5075586;28;43404;-61
2022/07/15 03:51:31;;;;;;;1.05;0.50;;;21.40;63.50;;;;;;5070558;28;45145;-59
2022/07/15 03:54:03;;;;;;;0.40;0.40;;;21.40;63.60;;;;;;5067505;28;43932;-61
2022/07/15 03:56:31;;;;;;;0.50;0.40;;;21.40;63.50;;;;;;5072166;28;43554;-61
2022/07/15 03:58:59;;;;;;;0.57;0.40;;;21.40;63.50;;;;;;5086178;27;43588;-61
2022/07/15 04:01:28;;;;;;;0.60;0.40;;;21.40;63.50;;;;;;5083871;27;45055;-61
2022/07/15 04:03:56;;;;;;;0.60;0.38;;;21.40;63.50;;;;;;5085296;27;43758;-61
2022/07/15 04:06:24;;;;;;;0.75;0.70;;;21.40;63.50;;;;;;5095579;27;43550;-61
2022/07/15 04:08:52;;;;;;;0.52;0.40;;;21.40;63.50;;;;;;5065068;28;43475;-61
2022/07/15 04:11:19;;;;;;;0.40;0.40;;;21.30;63.50;;;;;;5064699;28;43860;-61
2022/07/15 04:13:48;;;;;;;0.88;0.65;;;21.30;63.50;;;;;;5069236;28;43631;-61
2022/07/15 04:16:15;;;;;;;0.30;0.30;;;21.30;63.50;;;;;;5083415;28;43502;-61
2022/07/15 04:18:43;;;;;;;0.63;0.50;;;21.30;63.50;;;;;;5078306;28;43624;-61
2022/07/15 04:21:11;;;;;;;0.93;0.55;;;21.30;63.50;;;;;;5083078;28;45021;-61
2022/07/15 04:23:39;;;;;;;0.80;0.30;;;21.30;63.50;;;;;;5063777;28;43557;-61
2022/07/15 04:26:08;;;;;;;0.55;0.45;;;21.30;63.60;;;;;;5082500;28;43391;-61
2022/07/15 04:28:36;;;;;;;1.75;0.50;;;21.30;63.50;;;;;;5084176;27;43690;-61
2022/07/15 04:31:03;;;;;;;0.57;0.50;;;21.30;63.50;;;;;;5082123;28;44077;-61
2022/07/15 04:33:41;;;;;;;0.50;0.30;;;21.30;63.50;;;;;;5081194;28;45168;-61
2022/07/15 04:36:08;;;;;;;1.02;0.52;;;21.30;63.50;;;;;;5082790;28;43431;-61
2022/07/15 04:38:35;;;;;;;0.60;0.40;;;21.30;63.50;;;;;;5080496;28;43528;-61
2022/07/15 04:41:03;;;;;;;0.60;0.60;;;21.30;63.60;;;;;;5067389;28;44784;-61
2022/07/15 04:43:32;;;;;;;1.08;0.57;;;21.30;63.60;;;;;;5068392;28;43896;-61
2022/07/15 04:46:00;;;;;;;0.30;0.30;;;21.30;63.60;;;;;;5075037;28;43382;-61
2022/07/15 04:51:17;;;;;;;0.73;0.60;;;21.30;63.60;;;;;;5067595;28;44979;-61
2022/07/15 04:53:44;;;;;;;0.50;0.47;;;21.30;63.60;;;;;;5075602;28;43506;-61
2022/07/15 04:56:12;;;;;;;0.80;0.45;;;21.30;63.60;;;;;;5083940;28;43452;-61
2022/07/15 04:58:39;;;;;;;0.73;0.35;;;21.30;63.60;;;;;;5109928;27;43447;-61
2022/07/15 05:01:07;;;;;;;1.08;0.47;;;21.20;63.50;;;;;;5075743;28;44972;-61
2022/07/15 05:03:35;;;;;;;1.60;0.85;;;21.30;63.60;;;;;;5076164;28;43838;-61
2022/07/15 05:06:03;;;;;;;0.65;0.60;;;21.20;63.60;;;;;;5064589;28;43497;-61
2022/07/15 05:08:35;;;;;;;0.60;0.50;;;21.30;63.60;;;;;;5064421;28;43530;-61
2022/07/15 05:11:05;;;;;;;0.38;0.38;;;21.20;63.60;;;;;;5076198;28;44857;-61
2022/07/15 05:13:35;;;;;;;0.57;0.50;;;21.20;63.60;;;;;;5077044;28;43724;-61
2022/07/15 05:16:03;;;;;;;0.45;0.40;;;21.20;63.60;;;;;;5080337;28;43441;-61
2022/07/15 05:18:31;;;;;;;0.68;0.60;;;21.20;63.60;;;;;;5081895;28;43667;-61
2022/07/15 05:21:01;;;;;;;1.30;0.60;;;21.30;63.70;;;;;;5080803;28;44817;-60
2022/07/15 05:23:33;;;;;;;0.50;0.40;;;21.20;63.60;;;;;;5081368;28;43437;-60
2022/07/15 05:26:04;;;;;;;0.40;0.40;;;21.20;63.60;;;;;;5081989;28;43502;-61
2022/07/15 05:28:35;;;;;;;0.98;0.40;;;21.20;63.70;;;;;;5079739;28;43508;-61
2022/07/15 05:31:02;;;;;;;0.70;0.60;;;21.20;63.60;;;;;;5082110;28;43883;-61
2022/07/15 05:33:29;;;;;;;0.40;0.20;;;21.20;63.60;;;;;;5073511;28;44145;-61
2022/07/15 05:35:57;;;;;;;0.60;0.30;;;21.30;63.70;;;;;;5076018;28;43418;-61
2022/07/15 05:38:29;;;;;;;0.50;0.50;;;21.20;63.60;;;;;;5097615;27;43439;-62
2022/07/15 05:40:58;;;;;;;0.30;0.30;;;21.30;63.70;;;;;;5079267;28;44816;-61
2022/07/15 05:43:28;;;;;;;1.20;0.40;;;21.30;63.70;;;;;;5081139;28;43738;-62
2022/07/15 05:45:55;;;;;;;0.35;0.35;;;21.20;63.60;;;;;;5081472;28;43508;-61
2022/07/15 05:48:25;;;;;;;0.73;0.30;;;21.20;63.60;;;;;;5067541;28;43453;-61
2022/07/15 05:50:55;;;;;;;0.47;0.30;;;21.20;63.60;;;;;;5076103;28;45151;-61
2022/07/15 05:53:22;;;;;;;0.57;0.32;;;21.30;63.70;;;;;;5076984;28;43399;-61
2022/07/15 05:55:52;;;;;;;0.52;0.50;;;21.20;63.60;;;;;;5064364;28;43396;-61
2022/07/15 05:58:21;;;;;;;0.45;0.30;;;21.20;63.60;;;;;;5082681;27;43655;-61
2022/07/15 06:00:50;;;;;;;0.65;0.40;;;21.20;63.70;;;;;;5070971;28;43957;-61
2022/07/15 06:03:18;;;;;;;0.30;0.30;;;21.30;63.70;;;;;;5068589;28;43473;-61
2022/07/15 06:05:45;;;;;;;0.77;0.30;;;21.20;63.60;;;;;;5078721;28;43487;-61
2022/07/15 06:08:13;;;;;;;0.20;0.20;;;21.30;63.70;;;;;;5077814;28;43419;-61
2022/07/15 06:10:44;;;;;;;0.50;0.40;;;21.30;63.70;;;;;;5071193;28;44036;-61
2022/07/15 06:13:12;;;;;;;0.20;0.20;;;21.30;63.70;;;;;;5082159;27;43479;-61
2022/07/15 06:15:41;;;;;;;0.60;0.30;;;21.20;63.60;;;;;;5081289;28;43482;-61
2022/07/15 06:18:13;;;;;;;0.40;0.40;;;21.20;63.60;;;;;;5075754;28;43569;-60
2022/07/15 06:20:41;;;;;;;0.95;0.50;;;21.20;63.70;;;;;;5071392;28;44958;-61
2022/07/15 06:23:08;;;;;;;0.35;0.35;;;21.20;63.70;;;;;;5063590;28;43471;-62
2022/07/15 06:25:36;;;;;;;1.75;0.60;;;21.30;63.70;;;;;;5075942;27;43531;-61
2022/07/15 06:28:04;;;;;;;0.63;0.40;;;21.20;63.80;;;;;;5088066;27;43593;-61
2022/07/15 06:30:31;;;;;;;0.30;0.30;;;21.20;63.70;;;;;;5088079;27;45327;-61
2022/07/15 06:32:58;;;;;;;0.38;0.38;;;21.20;63.70;;;;;;5080893;28;45021;-61
2022/07/15 06:35:27;;;;;;;0.43;0.43;;;21.20;63.70;;;;;;5079401;28;43979;-61
2022/07/15 06:37:54;;;;;;;1.02;0.30;;;21.20;63.70;;;;;;5088555;27;43688;-61
2022/07/15 06:40:22;;;;;;;0.38;0.30;;;21.20;63.70;;;;;;5079706;28;44456;-61
2022/07/15 06:42:49;;;;;;;0.60;0.30;;;21.20;63.70;;;;;;5080064;28;44036;-61
2022/07/15 06:45:25;;;;;;;0.77;0.32;;;21.20;63.60;;;;;;5082155;28;43518;-61
2022/07/15 06:47:52;;;;;;;1.02;0.57;;;21.20;63.60;;;;;;5072421;28;43578;-61
2022/07/15 06:50:22;;;;;;;0.50;0.40;;;21.20;63.60;;;;;;5088110;28;44107;-61
2022/07/15 06:52:50;;;;;;;0.82;0.40;;;21.30;63.70;;;;;;5087397;27;43465;-61
2022/07/15 06:55:20;;;;;;;0.40;0.32;;;21.20;63.60;;;;;;5082348;28;43476;-61
2022/07/15 06:57:48;;;;;;;0.65;0.40;;;21.20;63.70;;;;;;5083159;27;43558;-61
2022/07/15 07:00:15;;;;;;;0.80;0.50;;;21.30;63.70;;;;;;5075577;28;44223;-61
2022/07/15 07:02:44;;;;;;;0.32;0.30;;;21.20;63.70;;;;;;5076842;28;43428;-61
2022/07/15 07:05:15;;;;;;;0.45;0.40;;;21.20;63.70;;;;;;5080373;28;43494;-61
2022/07/15 07:07:43;;;;;;;0.60;0.40;;;21.20;63.70;;;;;;5079167;28;43524;-61
2022/07/15 07:10:11;;;;;;;0.57;0.28;;;21.20;63.70;;;;;;5082890;28;44071;-61
2022/07/15 07:12:38;;;;;;;0.45;0.40;;;21.20;63.70;;;;;;5086807;28;44016;-61
2022/07/15 07:15:07;;;;;;;0.50;0.40;;;21.20;63.80;;;;;;5088148;28;43457;-61
2022/07/15 07:17:34;;;;;;;0.32;0.30;;;21.20;63.80;;;;;;5088759;27;43445;-61
2022/07/15 07:20:02;;;;;;;0.68;0.40;;;21.20;63.80;;;;;;5076060;28;44986;-61
2022/07/15 07:22:29;;;;;;;0.50;0.50;;;21.20;63.80;;;;;;5086276;28;44107;-61
2022/07/15 07:24:59;;;;;;;0.75;0.32;;;21.20;63.80;;;;;;5088316;27;43449;-61
2022/07/15 07:27:26;;;;;;;0.40;0.35;;;21.20;63.80;;;;;;5088730;27;43587;-61
2022/07/15 07:29:54;;;;;;;0.55;0.40;;;21.20;63.80;;;;;;5087273;27;44570;-61
2022/07/15 07:32:21;;;;;;;0.98;0.50;;;21.20;63.80;;;;;;5073203;28;43487;-61
2022/07/15 07:34:48;;;;;;;0.47;0.30;;;21.20;63.70;;;;;;5080411;27;43446;-61
2022/07/15 07:37:16;;;;;;;0.20;0.20;;;21.20;63.80;;;;;;5086888;27;43568;-61
2022/07/15 07:39:43;;;;;;;0.43;0.35;;;21.20;63.70;;;;;;5078651;27;44430;-59
2022/07/15 07:42:11;;;;;;;0.50;0.40;;;21.20;63.70;;;;;;5081798;27;43466;-60
2022/07/15 07:44:39;;;;;;;0.55;0.40;;;21.20;63.70;;;;;;5082499;27;43560;-60
2022/07/15 07:47:06;;;;;;;0.65;0.50;;;21.20;64.40;;;;;;5084395;27;43562;-61
2022/07/15 07:49:40;;;;;;;0.75;0.30;;;21.20;63.70;;;;;;5079757;28;43807;-61
2022/07/15 07:52:07;;;;;;;0.60;0.30;;;21.20;63.70;;;;;;5084218;27;43452;-61
2022/07/15 07:54:35;;;;;;;0.45;0.30;;;21.20;63.70;;;;;;5084650;27;43460;-61
2022/07/15 07:57:03;;;;;;;2.20;0.40;;;21.20;63.70;;;;;;5084242;27;43536;-61
2022/07/15 07:59:31;;;;;;;0.65;0.40;;;21.30;63.80;;;;;;5082998;27;44723;-61
2022/07/15 08:01:58;;;;;;;0.38;0.38;;;21.20;63.70;;;;;;5078705;28;43943;-61
2022/07/15 08:04:26;;;;;;;0.45;0.30;;;21.20;63.80;;;;;;5081465;27;43559;-61
2022/07/15 08:06:53;;;;;;;0.70;0.28;;;21.30;63.80;;;;;;5082732;27;43608;-58
2022/07/15 08:09:21;;;;;;;0.40;0.30;;;21.30;63.80;;;;;;5068114;28;43765;-61
2022/07/15 08:11:49;;;;;;;0.82;0.40;;;21.20;63.70;;;;;;5081097;28;44072;-61
2022/07/15 08:14:18;;;;;;;0.22;0.20;;;21.20;63.70;;;;;;5085037;28;43421;-61
2022/07/15 08:16:46;;;;;;;0.38;0.38;;;21.20;63.70;;;;;;5083806;28;43892;-61
2022/07/15 08:19:16;;;;;;;0.30;0.30;;;21.20;63.70;;;;;;5079020;27;44862;-61
2022/07/15 08:21:44;;;;;;;0.30;0.30;;;21.30;63.80;;;;;;5083380;27;43823;-61
2022/07/15 08:24:12;;;;;;;0.20;0.20;;;21.30;63.80;;;;;;5084597;27;43390;-61
2022/07/15 08:26:39;;;;;;;0.30;0.30;;;21.30;63.80;;;;;;5083921;27;43487;-61
2022/07/15 08:29:09;;;;;;;0.55;0.30;;;21.20;63.70;;;;;;5084406;28;43911;-61
2022/07/15 08:31:37;;;;;;;0.20;0.20;;;21.20;63.70;;;;;;5081659;28;44355;-60
2022/07/15 08:34:05;;;;;;;0.45;0.30;;;21.20;63.70;;;;;;5083963;27;43464;-61
2022/07/15 08:36:33;;;;;;;0.38;0.30;;;21.20;63.70;;;;;;5084086;27;43557;-61
2022/07/15 08:39:00;;;;;;;0.40;0.38;;;21.30;64.40;;;;;;5083607;28;45422;-61
2022/07/15 08:41:33;;;;;;;1.05;0.40;;;21.20;63.70;;;;;;5083468;27;43694;-61
2022/07/15 08:44:00;;;;;;;1.88;0.30;;;21.20;63.60;;;;;;5083976;27;43371;-61
2022/07/15 08:46:29;;;;;;;0.55;0.20;;;21.20;63.70;;;;;;5083387;28;43601;-61
2022/07/15 08:49:08;;;;;;;0.65;0.40;;;21.20;63.70;;;;;;5083629;27;45146;-61
2022/07/15 08:51:41;;;;;;;0.52;0.30;;;21.20;63.70;;;;;;5078878;28;43439;-60
2022/07/15 08:54:09;;;;;;;0.82;0.50;;;21.20;63.70;;;;;;5083389;27;43425;-61
2022/07/15 08:56:37;;;;;;;0.63;0.40;;;21.30;63.70;;;;;;5083612;27;43618;-61
2022/07/15 08:59:06;;;;;;;0.40;0.40;;;21.20;63.60;;;;;;5091640;27;44849;-61
2022/07/15 09:01:42;;;;;;;0.30;0.30;;;21.30;63.70;;;;;;5081637;27;44071;-59
2022/07/15 09:04:09;;;;;;;0.90;0.35;;;21.30;63.60;;;;;;5079398;27;43420;-61
2022/07/15 09:06:41;;;;;;;0.40;0.35;;;21.30;63.60;;;;;;5083437;27;44207;-61
2022/07/15 09:09:18;;;;;;;0.30;0.30;;;21.30;63.60;;;;;;5069776;28;45046;-61
2022/07/15 09:12:00;;;;;;;0.50;0.30;;;21.30;63.60;;;;;;5082369;28;43952;-61
2022/07/15 09:14:42;;;;;;;0.30;0.30;;;21.30;63.50;;;;;;5083093;27;43524;-61
2022/07/15 09:17:10;;;;;;;0.20;0.20;;;21.30;63.60;;;;;;5083817;27;43584;-61
2022/07/15 09:19:57;;;;;;;0.57;0.20;;;21.30;63.50;;;;;;5074837;28;43784;-61
2022/07/15 09:22:28;;;;;;;0.60;0.40;;;21.30;63.50;;;;;;5081326;28;44101;-61
2022/07/15 09:25:04;;;;;;;0.32;0.20;;;21.30;63.50;;;;;;5078878;28;43561;-61
2022/07/15 09:27:37;;;;;;;0.82;0.40;;;21.30;63.50;;;;;;5083067;27;43517;-61
2022/07/15 09:36:02;;;;;;;0.45;0.30;;;21.30;63.50;;;;;;5077998;27;43476;-61
2022/07/15 09:38:41;;;;;;;0.32;0.32;;;21.30;63.60;;;;;;5080834;28;43469;-61
2022/07/15 09:41:28;;;;;;;1.98;0.50;;;21.30;63.60;;;;;;5077380;27;44057;-61
2022/07/15 09:44:06;;;;;;;1.20;0.30;;;21.30;63.40;;;;;;5081702;28;43710;-61
2022/07/15 09:46:44;;;;;;;1.15;0.50;;;21.40;63.50;;;;;;5081331;28;43449;-61
2022/07/15 09:49:34;;;;;;;0.52;0.32;;;21.40;63.40;;;;;;5078491;28;43549;-60
2022/07/15 09:52:07;;;;;;;0.88;0.32;;;21.40;63.50;;;;;;5081291;28;44911;-60
2022/07/15 09:54:36;;;;;;;0.68;0.50;;;21.40;63.50;;;;;;5081771;28;43969;-60
2022/07/15 09:57:06;;;;;;;0.20;0.20;;;21.40;63.50;;;;;;5081257;27;43466;-61
2022/07/15 09:59:34;;;;;;;0.85;0.40;;;21.40;63.40;;;;;;5081394;28;43452;-60
2022/07/15 10:02:07;;;;;;;0.63;0.50;;;21.40;63.40;;;;;;5078375;27;44110;-61
2022/07/15 10:04:35;;;;;;;0.47;0.30;;;21.40;63.30;;;;;;5079237;27;44092;-61
2022/07/15 10:07:04;;;;;;;0.80;0.38;;;21.40;63.30;;;;;;5078631;27;43465;-61
2022/07/15 10:09:53;;;;;;;0.82;0.47;;;21.50;63.40;;;;;;5072599;28;43526;-61
2022/07/15 10:12:26;;;;;;;0.47;0.20;;;21.50;63.50;;;;;;5073951;27;44702;-61
2022/07/15 10:15:38;;;;;;;0.65;0.30;;;21.50;63.50;;;;;;5078160;27;43370;-61
2022/07/15 10:18:27;;;;;;;0.43;0.40;;;21.50;63.50;;;;;;5061544;28;43617;-61
2022/07/15 10:21:27;;;;;;;0.20;0.20;;;21.50;63.60;;;;;;5079402;28;43470;-60
2022/07/15 10:24:15;;;;;;;0.30;0.30;;;21.50;63.60;;;;;;5067954;28;44211;-61
2022/07/15 10:26:55;;;;;;;1.02;0.70;;;21.60;63.70;;;;;;5081114;27;44024;-60
2022/07/15 10:29:23;;;;;;;1.67;0.40;;;21.60;63.70;;;;;;5081688;27;43563;-61
2022/07/15 10:31:59;;;;;;;0.73;0.40;;;21.60;63.60;;;;;;5070559;28;43559;-61
2022/07/15 10:34:37;;;;;;;1.02;0.50;;;21.60;63.60;;;;;;5071001;28;44165;-61
2022/07/15 10:37:12;;;;;;;0.65;0.43;;;21.60;63.60;;;;;;5080922;27;43493;-61
2022/07/15 10:39:51;;;;;;;0.77;0.40;;;21.60;63.40;;;;;;5078472;28;43424;-60
2022/07/15 10:42:20;;;;;;;0.90;0.80;;;21.60;63.40;;;;;;5081489;27;43513;-61
2022/07/15 10:45:00;;;;;;;0.68;0.45;;;21.70;63.50;;;;;;5071558;28;44041;-60
2022/07/15 10:47:27;;;;;;;0.60;0.40;;;21.70;63.40;;;;;;5080056;28;43533;-61
2022/07/15 10:49:55;;;;;;;1.00;0.45;;;21.70;63.50;;;;;;5078319;28;43477;-60
2022/07/15 10:52:31;;;;;;;1.45;0.40;;;21.70;63.50;;;;;;5077274;27;43490;-61
2022/07/15 10:55:03;;;;;;;0.65;0.40;;;21.70;63.50;;;;;;5080808;27;44950;-60
2022/07/15 10:57:40;;;;;;;1.00;0.57;;;21.70;63.50;;;;;;5077812;27;43967;-61
2022/07/15 11:00:28;;;;;;;0.52;0.40;;;21.70;63.50;;;;;;5078925;27;43583;-61
2022/07/15 11:03:13;;;;;;;0.90;0.50;;;21.70;63.40;;;;;;5037573;28;43503;-61
2022/07/15 11:05:53;;;;;;;1.35;0.40;;;21.70;63.50;;;;;;5035864;28;43802;-60
2022/07/15 11:08:36;;;;;;;0.57;0.40;;;21.80;63.50;;;;;;5037820;28;44044;-60
2022/07/15 11:11:16;;;;;;;0.95;0.50;;;21.80;63.60;;;;;;5036010;28;43546;-60
2022/07/15 11:13:45;;;;;;;0.88;0.50;;;21.80;63.50;;;;;;5038362;28;43481;-60
2022/07/15 11:16:15;;;;;;;0.88;0.50;;;21.80;63.40;;;;;;5040632;28;45029;-61
2022/07/15 11:18:54;;;;;;;0.45;0.40;;;21.80;63.40;;;;;;5038743;28;43697;-60
2022/07/15 11:21:23;;;;;;;0.32;0.30;;;21.80;63.40;;;;;;5038210;28;43527;-61
2022/07/15 11:23:53;;;;;;;2.22;0.45;;;21.80;63.40;;;;;;5040199;28;43587;-60
2022/07/15 11:26:21;;;;;;;0.63;0.30;;;21.80;63.40;;;;;;5041574;28;44916;-61
2022/07/15 11:28:57;;;;;;;0.30;0.30;;;21.80;63.40;;;;;;5041907;28;43706;-60
2022/07/15 11:31:25;;;;;;;0.40;0.40;;;21.80;63.40;;;;;;5042805;28;43447;-60
2022/07/15 11:33:54;;;;;;;0.50;0.32;;;21.80;63.40;;;;;;5042906;28;43689;-60
2022/07/15 11:36:22;;;;;;;0.50;0.50;;;21.80;63.40;;;;;;5041558;28;44320;-60
2022/07/15 11:38:51;;;;;;;1.42;0.50;;;21.80;63.40;;;;;;5043067;28;43777;-61
2022/07/15 11:46:55;;;;;;;0.68;0.50;;;21.80;63.50;;;;;;5041301;28;44057;-60
2022/07/15 11:49:41;;;;;;;0.90;0.50;;;21.80;63.60;;;;;;5041360;28;43421;-61
2022/07/15 11:52:11;;;;;;;1.13;0.40;;;21.80;63.50;;;;;;5041765;28;43477;-60
2022/07/15 11:54:40;;;;;;;1.00;0.60;;;21.80;63.50;;;;;;5043278;28;43616;-60
2022/07/15 11:57:12;;;;;;;1.00;0.60;;;21.80;63.50;;;;;;5042761;28;44047;-60
2022/07/15 11:59:39;;;;;;;0.95;0.50;;;21.80;63.50;;;;;;5045089;28;43817;-60
2022/07/15 12:02:09;;;;;;;0.82;0.60;;;21.80;63.50;;;;;;5073435;28;43521;-60
2022/07/15 12:04:39;;;;;;;0.50;0.40;;;21.80;63.50;;;;;;5084664;28;43477;-60
2022/07/15 12:07:07;;;;;;;1.42;0.52;;;21.90;63.60;;;;;;5084307;28;43877;-60
2022/07/15 12:09:45;;;;;;;0.35;0.35;;;21.80;63.60;;;;;;5068765;28;44046;-60
2022/07/15 12:12:13;;;;;;;0.40;0.40;;;21.80;63.60;;;;;;5082740;27;43406;-60
2022/07/15 12:14:42;;;;;;;0.75;0.50;;;21.80;63.60;;;;;;5084527;27;43473;-60
2022/07/15 12:17:09;;;;;;;0.85;0.57;;;21.80;63.70;;;;;;5084405;27;43908;-60
2022/07/15 12:19:37;;;;;;;0.52;0.47;;;21.80;63.70;;;;;;5084330;27;43371;-60
2022/07/15 12:22:09;;;;;;;0.45;0.40;;;21.80;63.70;;;;;;5083596;27;43434;-60
2022/07/15 12:24:43;;;;;;;0.70;0.40;;;21.80;63.80;;;;;;5083155;27;43489;-60
2022/07/15 12:27:13;;;;;;;0.95;0.45;;;21.90;63.70;;;;;;5084581;27;45043;-60
2022/07/15 12:29:41;;;;;;;1.33;0.40;;;21.90;63.70;;;;;;5083940;27;44268;-60
2022/07/15 12:32:28;;;;;;;0.43;0.43;;;21.90;63.50;;;;;;5083431;28;43529;-60
2022/07/15 12:34:58;;;;;;;0.40;0.40;;;21.90;63.50;;;;;;5083942;27;43502;-60
2022/07/15 12:37:26;;;;;;;0.52;0.52;;;21.90;63.50;;;;;;5083978;27;43965;-60
2022/07/15 12:40:00;;;;;;;0.77;0.50;;;21.90;63.40;;;;;;5083139;27;43390;-60
2022/07/15 12:42:39;;;;;;;0.50;0.47;;;22.00;63.50;;;;;;5083305;27;43445;-61
2022/07/15 12:45:17;;;;;;;0.70;0.52;;;22.00;63.50;;;;;;5083568;27;43485;-60
2022/07/15 12:48:03;;;;;;;0.43;0.43;;;21.90;63.40;;;;;;5083347;27;44812;-61
2022/07/15 12:50:35;;;;;;;1.38;0.40;;;22.00;63.50;;;;;;5083546;27;43450;-60
2022/07/15 12:53:03;;;;;;;0.40;0.40;;;22.00;63.50;;;;;;5082859;28;43401;-61
2022/07/15 12:55:41;;;;;;;1.15;0.60;;;22.00;63.50;;;;;;5083773;28;43573;-60
2022/07/15 12:58:11;;;;;;;0.68;0.60;;;22.00;63.60;;;;;;5089913;27;44100;-60
2022/07/15 13:00:39;;;;;;;1.52;0.60;;;22.00;63.60;;;;;;5085135;27;43537;-60
2022/07/15 13:03:14;;;;;;;0.80;0.40;;;22.00;63.50;;;;;;5083378;28;43470;-61
2022/07/15 13:05:58;;;;;;;0.82;0.30;;;22.00;63.50;;;;;;5083062;27;43433;-60
2022/07/15 13:08:28;;;;;;;0.88;0.40;;;22.00;63.50;;;;;;5084001;27;44037;-61
2022/07/15 13:10:59;;;;;;;1.25;0.50;;;22.00;63.50;;;;;;5082857;27;43948;-61
2022/07/15 13:13:29;;;;;;;0.55;0.40;;;22.00;63.40;;;;;;5081206;27;43574;-61
2022/07/15 13:15:58;;;;;;;0.70;0.60;;;22.00;63.40;;;;;;5083058;27;43481;-61
2022/07/15 13:18:26;;;;;;;0.60;0.50;;;22.00;63.40;;;;;;5079584;28;43859;-60
2022/07/15 13:20:55;;;;;;;0.50;0.40;;;22.00;63.30;;;;;;5080326;28;43686;-61